Nearby METAR* Reports

*"METAR [Météorologique Aviation Régulière] is the international standard code format for hourly surface weather observations which is analogous to the SA coding currently used in the US. The acronym roughly translates from French as Aviation Routine Weather Report." (Source: http://gosic.org/wdcmet/us-metar-faq-taf)

 

KTEB - Teterboro, New Jersey, USA
Distance from station: ENE 2mi, 3km
Updated: 12/16/2018 4:51am
Rain, Mist, Overcast
Rain, Mist, Overcast
 Wind from NE
Wind: NE 6 mph , 9 km/h, Gust: 18 mph , 30 km/h
Temperature: 41°F , 5°C
Wind Chill: 37°F , 3°C
Dew Point: 36°F , 2°C
Humidity: 81%
Barometer: 30.10 inHg , 1019.3 hPa
Summary: Rain, Mist
Clouds: Overcast
Visibility: 4 miles , 6 km
Cloud details: Partly cloudy 2500 ft
Mostly cloudy 3800 ft
Overcast 4600 ft
2018/12/16 09:51 KTEB 160951Z 05005G16KT 4SM RA BR SCT025 BKN038 OVC046 05/02 A3010 RMK AO2 SLP191 P0012 T00500022 $
KNYC - Nyc/Central Park, New York, USA
Distance from station: SE 8mi, 13km
Updated: 12/16/2018 4:51am
Rain, Mist, Overcast
Rain, Mist, Overcast
 
Temperature: 39°F , 4°C
Dew Point: 36°F , 2°C
Humidity: 87%
Barometer: 30.11 inHg , 1019.6 hPa
Summary: Rain, Mist
Clouds: Overcast
Visibility: 5 miles , 8 km
Cloud details: Mostly cloudy 2000 ft
Overcast 3800 ft
2018/12/16 09:51 KNYC 160951Z AUTO 5SM RA BR BKN020 OVC038 04/02 A3011 RMK AO2 PRESRR SLP187 P0005 T00440022 $
KCDW - Caldwell, New Jersey, USA
Distance from station: W 11mi, 17km
Updated: 12/16/2018 4:53am
Rain, Mist, Overcast
Rain, Mist, Overcast
 Wind from ENE
Wind: ENE 10 mph , 17 km/h
Temperature: 39°F , 4°C
Wind Chill: 32°F , 0°C
Dew Point: 37°F , 3°C
Humidity: 93%
Barometer: 30.09 inHg , 1019 hPa
Summary: Rain, Mist
Clouds: Overcast
Visibility: 3 miles , 5 km
Cloud details: Few Clouds 2400 ft
Overcast 4200 ft
2018/12/16 09:53 KCDW 160953Z AUTO 07009KT 3SM RA BR FEW024 OVC042 04/03 A3009 RMK AO2 SLP195 P0007 T00390028
 
KLGA - Nyc/La Guardia, New York, USA
Distance from station: ESE 12mi, 19km
Updated: 12/16/2018 4:58am
Light rain, Overcast
Light rain, Overcast
 Wind from ENE
Wind: ENE 20 mph , 31 km/h, Gust: 28 mph , 44 km/h
Temperature: 41°F , 5°C
Wind Chill: 32°F , 0°C
Dew Point: 36°F , 2°C
Humidity: 81%
Barometer: 30.09 inHg , 1019 hPa
Summary: Light rain
Clouds: Overcast
Visibility: 10 miles , 16 km
Cloud details: Mostly cloudy 1800 ft
Mostly cloudy 4300 ft
Overcast 5000 ft
2018/12/16 09:58 KLGA 160958Z 06017G24KT 10SM -RA BKN018 BKN043 OVC050 05/02 A3009 RMK AO2 P0001 T00500022
KEWR - Newark, New Jersey, USA
Distance from station: SSW 13mi, 20km
Updated: 12/16/2018 4:51am
Rain, Mist, Overcast
Rain, Mist, Overcast
 Wind from NE
Wind: NE 16 mph , 26 km/h, Gust: 22 mph , 35 km/h
Temperature: 41°F , 5°C
Wind Chill: 33°F , 1°C
Dew Point: 37°F , 3°C
Humidity: 87%
Barometer: 30.08 inHg , 1018.6 hPa
Summary: Rain, Mist
Clouds: Overcast
Visibility: 4 miles , 6 km
Cloud details: Mostly cloudy 2200 ft
Overcast 3400 ft
2018/12/16 09:51 KEWR 160951Z 05014G19KT 4SM RA BR BKN022 OVC034 05/03 A3008 RMK AO2 SLP186 P0008 T00500028 $
KMMU - Morristown Muni, New Jersey, USA
Distance from station: WSW 18mi, 29km
Updated: 12/16/2018 4:55am
Rain, Overcast
Rain, Overcast
 Wind from NE
Wind: NE 14 mph , 22 km/h
Temperature: 37°F , 3°C
Wind Chill: 28°F , -2°C
Dew Point: 37°F , 3°C
Humidity: 100%
Barometer: 30.05 inHg , 1017.6 hPa
Summary: Rain
Clouds: Overcast
Visibility: 2 1/2 miles , 4 km
Cloud details: Partly cloudy 1700 ft
Mostly cloudy 3700 ft
Overcast 5500 ft
2018/12/16 09:55 KMMU 160955Z AUTO 04012KT 2 1/2SM RA SCT017 BKN037 OVC055 03/03 A3005 RMK AO2 P0001
 
KLDJ - Linden, New Jersey, USA
Distance from station: SSW 19mi, 30km
Updated: 12/16/2018 4:55am
Heavy rain, Overcast
Heavy rain, Overcast
 Wind from E
Wind: E 21 mph , 33 km/h, Gust: 32 mph , 52 km/h
Temperature: 41°F , 5°C
Wind Chill: 32°F , 0°C
Dew Point: 37°F , 3°C
Humidity: 87%
Barometer: 30.04 inHg , 1017.3 hPa
Summary: Heavy rain
Clouds: Overcast
Visibility: 3 miles , 5 km
Cloud details: Partly cloudy 2100 ft
Mostly cloudy 2500 ft
Overcast 4000 ft
2018/12/16 09:55 KLDJ 160955Z AUTO 09018G28KT 3SM +RA SCT021 BKN025 OVC040 05/03 A3004 RMK AO2 P0010 T00500027
KJFK - Nyc/Jfk Arpt, New York, USA
Distance from station: SE 23mi, 36km
Updated: 12/16/2018 4:51am
Rain, Mist, Overcast
Rain, Mist, Overcast
 Wind from NE
Wind: NE 21 mph , 33 km/h, Gust: 28 mph , 44 km/h
Temperature: 41°F , 5°C
Wind Chill: 32°F , 0°C
Dew Point: 39°F , 4°C
Humidity: 93%
Barometer: 30.08 inHg , 1018.6 hPa
Summary: Rain, Mist
Clouds: Overcast
Visibility: 6 miles , 10 km
Cloud details: Partly cloudy 1500 ft
Mostly cloudy 3700 ft
Overcast 5500 ft
2018/12/16 09:51 KJFK 160951Z 05018G24KT 6SM RA BR SCT015 BKN037 OVC055 05/04 A3008 RMK AO2 SLP184 P0003 T00500044
KHPN - White Plains, New York, USA
Distance from station: NE 25mi, 40km
Updated: 12/16/2018 4:56am
Light rain, Mist, Overcast
Light rain, Mist, Overcast
 Wind from ENE
Wind: ENE 13 mph , 20 km/h
Temperature: 37°F , 3°C
Wind Chill: 29°F , -2°C
Dew Point: 34°F , 1°C
Humidity: 87%
Barometer: 30.06 inHg , 1017.9 hPa
Summary: Light rain, Mist
Clouds: Overcast
Visibility: 6 miles , 10 km
Cloud details: Mostly cloudy 6000 ft
Overcast 7500 ft
2018/12/16 09:56 KHPN 160956Z 07011KT 6SM -RA BR BKN060 OVC075 03/01 A3006 RMK AO2 SLP185 P0007 T00330011
 
KSMQ - Somerville, New Jersey, USA
Distance from station: WSW 35mi, 56km
Updated: 12/16/2018 4:53am
Rain, Mist, Overcast
Rain, Mist, Overcast
 Wind from ENE
Wind: ENE 12 mph , 19 km/h, Gust: 17 mph , 28 km/h
Temperature: 39°F , 4°C
Wind Chill: 32°F , 0°C
Dew Point: 37°F , 3°C
Humidity: 93%
Barometer: 30.02 inHg , 1016.6 hPa
Summary: Rain, Mist
Clouds: Overcast
Visibility: 5 miles , 8 km
Cloud details: Mostly cloudy 1700 ft
Mostly cloudy 2300 ft
Overcast 3900 ft
2018/12/16 09:53 KSMQ 160953Z AUTO 06010G15KT 5SM RA BR BKN017 BKN023 OVC039 04/03 A3002 RMK AO2 PRESFR SLP167 P0011 T00440028
K12N - Andover, New Jersey, USA
Distance from station: WNW 36mi, 57km
Updated: 12/16/2018 4:54am

 Wind from varies
Wind: varies 6 mph , 9 km/h
Temperature: 36°F , 2°C
Wind Chill: 31°F , -1°C
Dew Point: 34°F , 1°C
Humidity: 93%
Barometer: 30.07 inHg , 1018.3 hPa
2018/12/16 09:54 K12N 160954Z AUTO VRB05KT 02/01 A3007 RMK AO1 SLP188 P0015 T00170011
KFRG - Farmingdale, New York, USA
Distance from station: ESE 36mi, 58km
Updated: 12/16/2018 4:53am
Rain, Mist, Overcast
Rain, Mist, Overcast
 Wind from ENE
Wind: ENE 13 mph , 20 km/h, Gust: 22 mph , 35 km/h
Temperature: 41°F , 5°C
Wind Chill: 34°F , 1°C
Dew Point: 37°F , 3°C
Humidity: 87%
Barometer: 30.08 inHg , 1018.6 hPa
Summary: Rain, Mist
Clouds: Overcast
Visibility: 5 miles , 8 km
Cloud details: Overcast 4200 ft
2018/12/16 09:53 KFRG 160953Z AUTO 07011G19KT 5SM RA BR OVC042 05/03 A3008 RMK AO2 SLP186 P0004 T00500028
 
KFWN - Sussex, New Jersey, USA
Distance from station: NW 37mi, 60km
Updated: 12/16/2018 4:53am
Light rain, Overcast
Light rain, Overcast
 Wind from NNE
Wind: NNE 10 mph , 17 km/h
Temperature: 36°F , 2°C
Wind Chill: 29°F , -2°C
Dew Point: 32°F , 0°C
Humidity: 87%
Barometer: 30.08 inHg , 1018.6 hPa
Summary: Light rain
Clouds: Overcast
Visibility: 10 miles , 16 km
Cloud details: Partly cloudy 4100 ft
Mostly cloudy 4800 ft
Overcast 6500 ft
2018/12/16 09:53 KFWN 160953Z AUTO 03009KT 10SM -RA SCT041 BKN048 OVC065 02/00 A3008 RMK AO2 SLP188 P0012 T00220000
KSWF - Newburgh/Stewart, New York, USA
Distance from station: 0 44mi, 72km
Updated: 12/16/2018 4:45am
Overcast
Overcast
 Wind from E
Wind: E 9 mph , 15 km/h
Temperature: 37°F , 3°C
Wind Chill: 30°F , -1°C
Dew Point: 30°F , -1°C
Humidity: 75%
Barometer: 30.12 inHg , 1020 hPa
Clouds: Overcast
Visibility: 10 miles , 16 km
Cloud details: Overcast 5000 ft
2018/12/16 09:45 KSWF 160945Z 08008KT 10SM OVC050 03/M01 A3012
KMGJ - Montgomery, New York, USA
Distance from station: NNW 47mi, 75km
Updated: 12/16/2018 4:54am
Light rain, Overcast
Light rain, Overcast
 Wind from NE
Wind: NE 13 mph , 20 km/h
Temperature: 36°F , 2°C
Wind Chill: 27°F , -3°C
Dew Point: 28°F , -2°C
Humidity: 75%
Barometer: 30.09 inHg , 1019 hPa
Summary: Light rain
Clouds: Overcast
Visibility: 10 miles , 16 km
Cloud details: Mostly cloudy 6000 ft
Overcast 8000 ft
2018/12/16 09:54 KMGJ 160954Z AUTO 04011KT 10SM -RA BKN060 OVC080 02/M02 A3009 RMK AO2 UPB24E27RAB27 SLP193 P0000 T00221017
 
KDXR - Danbury, Connecticut, USA
Distance from station: NE 47mi, 76km
Updated: 12/16/2018 4:53am
Light rain, Overcast
Light rain, Overcast
 Wind from ENE
Wind: ENE 10 mph , 17 km/h
Temperature: 37°F , 3°C
Wind Chill: 30°F , -1°C
Dew Point: 28°F , -2°C
Humidity: 70%
Barometer: 30.13 inHg , 1020.3 hPa
Summary: Light rain
Clouds: Overcast
Visibility: 10 miles , 16 km
Cloud details: Mostly cloudy 5000 ft
Overcast 7000 ft
2018/12/16 09:53 KDXR 160953Z AUTO 06009KT 10SM -RA BKN050 OVC070 03/M02 A3013 RMK AO2 RAB28 SLP203 P0000 T00281017
KBLM - Belmar/Farmdale, New Jersey, USA
Distance from station: S 48mi, 77km
Updated: 12/16/2018 4:56am
Light rain, Mist, Overcast
Light rain, Mist, Overcast
 Wind from NE
Wind: NE 24 mph , 39 km/h, Gust: 32 mph , 52 km/h
Temperature: 43°F , 6°C
Wind Chill: 34°F , 1°C
Dew Point: 39°F , 4°C
Humidity: 87%
Barometer: 29.99 inHg , 1015.6 hPa
Summary: Light rain, Mist
Clouds: Overcast
Visibility: 5 miles , 8 km
Cloud details: Mostly cloudy 800 ft
Overcast 1200 ft
2018/12/16 09:56 KBLM 160956Z AUTO 05021G28KT 5SM -RA BR BKN008 OVC012 06/04 A2999 RMK AO2 PK WND 05028/0955 SLP161 P0016 T00560044